Aviation Digital Data Service (ADDS)

Output produced by METARs form (0530 UTC 19 March 2019)
found at http://www.aviationweather.gov/metar/data/
 
METAR text: ETNH 190520Z 26009KT 9999 FEW020 01/M01 Q1021 BLU+BLU+
Conditions at: ETNH (HOHN (GER-AFB) , DE) observed 0520 UTC 19 March 2019
Temperature: 1.0°C (34°F)
Dewpoint: -1.0°C (30°F) [RH = 86%]
Pressure (altimeter): 30.15 inches Hg (1021.0 mb)
Winds: from the W (260 degrees) at 10 MPH (9 knots; 4.6 m/s)
Visibility: 6 or more miles (10+ km)
Ceiling: at least 12,000 feet AGL
Clouds: few clouds at 2000 feet AGL
Weather: no significant weather observed at this time

METAR text: ETNH 190420Z 26008KT 9999 FEW025 01/M01 Q1020 BLU+
Conditions at: ETNH (HOHN (GER-AFB) , DE) observed 0420 UTC 19 March 2019
Temperature: 1.0°C (34°F)
Dewpoint: -1.0°C (30°F) [RH = 86%]
Pressure (altimeter): 30.12 inches Hg (1020.0 mb)
Winds: from the W (260 degrees) at 9 MPH (8 knots; 4.1 m/s)
Visibility: 6 or more miles (10+ km)
Ceiling: at least 12,000 feet AGL
Clouds: few clouds at 2500 feet AGL
Weather: no significant weather observed at this time

METAR text: ETNH 190320Z AUTO 27008KT 9999 // ////// 01/M01 Q1020 ///
Conditions at: ETNH (HOHN (GER-AFB) , DE) observed 0320 UTC 19 March 2019
Temperature: 1.0°C (34°F)
Dewpoint: -1.0°C (30°F) [RH = 86%]
Pressure (altimeter): 30.12 inches Hg (1020.0 mb)
Winds: from the W (270 degrees) at 9 MPH (8 knots; 4.1 m/s)
Visibility: 6 or more miles (10+ km)
Ceiling: unknown
Clouds: missing
Weather: no significant weather observed at this time

METAR text: ETNH 190220Z AUTO 28008KT 9999 // ////// 03/M01 Q1019 ///
Conditions at: ETNH (HOHN (GER-AFB) , DE) observed 0220 UTC 19 March 2019
Temperature: 3.0°C (37°F)
Dewpoint: -1.0°C (30°F) [RH = 75%]
Pressure (altimeter): 30.09 inches Hg (1019.0 mb)
Winds: from the W (280 degrees) at 9 MPH (8 knots; 4.1 m/s)
Visibility: 6 or more miles (10+ km)
Ceiling: unknown
Clouds: missing
Weather: no significant weather observed at this time

METAR text: ETNH 190120Z AUTO 28007KT 9999 // ////// 03/M01 Q1019 ///
Conditions at: ETNH (HOHN (GER-AFB) , DE) observed 0120 UTC 19 March 2019
Temperature: 3.0°C (37°F)
Dewpoint: -1.0°C (30°F) [RH = 75%]
Pressure (altimeter): 30.09 inches Hg (1019.0 mb)
Winds: from the W (280 degrees) at 8 MPH (7 knots; 3.6 m/s)
Visibility: 6 or more miles (10+ km)
Ceiling: unknown
Clouds: missing
Weather: no significant weather observed at this time

METAR text: ETNH 190020Z AUTO 29009KT 9999 // ////// 04/M01 Q1018 ///
Conditions at: ETNH (HOHN (GER-AFB) , DE) observed 0020 UTC 19 March 2019
Temperature: 4.0°C (39°F)
Dewpoint: -1.0°C (30°F) [RH = 70%]
Pressure (altimeter): 30.06 inches Hg (1018.0 mb)
Winds: from the WNW (290 degrees) at 10 MPH (9 knots; 4.6 m/s)
Visibility: 6 or more miles (10+ km)
Ceiling: unknown
Clouds: missing
Weather: no significant weather observed at this time

METAR text: ETNH 182320Z AUTO 29010KT 9999 // ////// 04/M01 Q1017 ///
Conditions at: ETNH (HOHN (GER-AFB) , DE) observed 2320 UTC 18 March 2019
Temperature: 4.0°C (39°F)
Dewpoint: -1.0°C (30°F) [RH = 70%]
Pressure (altimeter): 30.03 inches Hg (1017.0 mb)
Winds: from the WNW (290 degrees) at 12 MPH (10 knots; 5.1 m/s)
Visibility: 6 or more miles (10+ km)
Ceiling: unknown
Clouds: missing
Weather: no significant weather observed at this time

METAR text: ETNH 182220Z AUTO 28012KT 9999 // ////// 05/M00 Q1017 ///
Conditions at: ETNH (HOHN (GER-AFB) , DE) observed 2220 UTC 18 March 2019
Temperature: 5.0°C (41°F)
Dewpoint: 0.0°C (32°F) [RH = 70%]
Pressure (altimeter): 30.03 inches Hg (1017.0 mb)
Winds: from the W (280 degrees) at 14 MPH (12 knots; 6.2 m/s)
Visibility: 6 or more miles (10+ km)
Ceiling: unknown
Clouds: missing
Weather: no significant weather observed at this time

METAR text: ETNH 182120Z 27008KT 9999 SCT060 03/M00 Q1016 BLU+
Conditions at: ETNH (HOHN (GER-AFB) , DE) observed 2120 UTC 18 March 2019
Temperature: 3.0°C (37°F)
Dewpoint: 0.0°C (32°F) [RH = 81%]
Pressure (altimeter): 30.00 inches Hg (1016.0 mb)
Winds: from the W (270 degrees) at 9 MPH (8 knots; 4.1 m/s)
Visibility: 6 or more miles (10+ km)
Ceiling: at least 12,000 feet AGL
Clouds: scattered clouds at 6000 feet AGL
Weather: no significant weather observed at this time

METAR text: ETNH 182020Z 29012KT 9999 FEW060 04/M01 Q1015 BLU+
Conditions at: ETNH (HOHN (GER-AFB) , DE) observed 2020 UTC 18 March 2019
Temperature: 4.0°C (39°F)
Dewpoint: -1.0°C (30°F) [RH = 70%]
Pressure (altimeter): 29.97 inches Hg (1015.0 mb)
Winds: from the WNW (290 degrees) at 14 MPH (12 knots; 6.2 m/s)
Visibility: 6 or more miles (10+ km)
Ceiling: at least 12,000 feet AGL
Clouds: few clouds at 6000 feet AGL
Weather: no significant weather observed at this time

METAR text: ETNH 181920Z 28011KT 8000 FEW030 04/01 Q1014 BLU+
Conditions at: ETNH (HOHN (GER-AFB) , DE) observed 1920 UTC 18 March 2019
Temperature: 4.0°C (39°F)
Dewpoint: 1.0°C (34°F) [RH = 81%]
Pressure (altimeter): 29.94 inches Hg (1014.0 mb)
Winds: from the W (280 degrees) at 13 MPH (11 knots; 5.7 m/s)
Visibility: 5 miles ( 8 km)
Ceiling: at least 12,000 feet AGL
Clouds: few clouds at 3000 feet AGL
Weather: no significant weather observed at this time

METAR text: ETNH 181820Z 28017KT 8000 SCT030 SCT060 05/01 Q1014 BLU+
Conditions at: ETNH (HOHN (GER-AFB) , DE) observed 1820 UTC 18 March 2019
Temperature: 5.0°C (41°F)
Dewpoint: 1.0°C (34°F) [RH = 75%]
Pressure (altimeter): 29.94 inches Hg (1014.0 mb)
Winds: from the W (280 degrees) at 20 MPH (17 knots; 8.7 m/s)
Visibility: 5 miles ( 8 km)
Ceiling: at least 12,000 feet AGL
Clouds: scattered clouds at 3000 feet AGL
scattered clouds at 6000 feet AGL
Weather: no significant weather observed at this time

METAR text: ETNH 181720Z 30017KT 8000 FEW020TCU 05/00 Q1012 BLU+FCST CANCEL
Conditions at: ETNH (HOHN (GER-AFB) , DE) observed 1720 UTC 18 March 2019
Temperature: 5.0°C (41°F)
Dewpoint: 0.0°C (32°F) [RH = 70%]
Pressure (altimeter): 29.88 inches Hg (1012.0 mb)
Winds: from the WNW (300 degrees) at 20 MPH (17 knots; 8.7 m/s)
Visibility: 5 miles ( 8 km)
Ceiling: at least 12,000 feet AGL
Clouds: few clouds at 2000 feet AGL
Weather: no significant weather observed at this time

METAR text: ETNH 181620Z 29016KT 8000 FEW020CB 06/02 Q1011 BLU+BLU TEMPO YLO
Conditions at: ETNH (HOHN (GER-AFB) , DE) observed 1620 UTC 18 March 2019
Temperature: 6.0°C (43°F)
Dewpoint: 2.0°C (36°F) [RH = 75%]
Pressure (altimeter): 29.85 inches Hg (1011.0 mb)
Winds: from the WNW (290 degrees) at 18 MPH (16 knots; 8.2 m/s)
Visibility: 5 miles ( 8 km)
Ceiling: at least 12,000 feet AGL
Clouds: few clouds at 2000 feet AGL
Weather: no significant weather observed at this time

METAR text: ETNH 181559Z 30020G38KT 8000 -SHRA SCT020CB SCT035 06/00 Q1011 RESHRA BLU+BLU TEMPO YLO
Conditions at: ETNH (HOHN (GER-AFB) , DE) observed 1559 UTC 18 March 2019
Temperature: 6.0°C (43°F)
Dewpoint: 0.0°C (32°F) [RH = 65%]
Pressure (altimeter): 29.85 inches Hg (1011.0 mb)
Winds: from the WNW (300 degrees) at 23 MPH (20 knots; 10.3 m/s)
gusting to 44 MPH (38 knots; 19.5 m/s)
Visibility: 5 miles ( 8 km)
Ceiling: at least 12,000 feet AGL
Clouds: scattered clouds at 2000 feet AGL
scattered clouds at 3500 feet AGL
Weather: -SHRA  (light rain showers)

METAR text: ETNH 181555Z 29018G28KT 2800 SHRA SCT020CB 07/01 Q1011 YLO BLU TEMPO YLO
Conditions at: ETNH (HOHN (GER-AFB) , DE) observed 1555 UTC 18 March 2019
Temperature: 7.0°C (45°F)
Dewpoint: 1.0°C (34°F) [RH = 66%]
Pressure (altimeter): 29.85 inches Hg (1011.0 mb)
Winds: from the WNW (290 degrees) at 21 MPH (18 knots; 9.3 m/s)
gusting to 32 MPH (28 knots; 14.4 m/s)
Visibility: 1.74 miles (2.80 km)
Ceiling: at least 12,000 feet AGL
Clouds: scattered clouds at 2000 feet AGL
Weather: SHRA  (rain showers)

METAR text: ETNH 181520Z 29022KT 9999 FEW020CB 06/02 Q1010 RERASN BLU+BLU TEMPO YLO
Conditions at: ETNH (HOHN (GER-AFB) , DE) observed 1520 UTC 18 March 2019
Temperature: 6.0°C (43°F)
Dewpoint: 2.0°C (36°F) [RH = 75%]
Pressure (altimeter): 29.82 inches Hg (1010.0 mb)
Winds: from the WNW (290 degrees) at 25 MPH (22 knots; 11.3 m/s)
Visibility: 6 or more miles (10+ km)
Ceiling: at least 12,000 feet AGL
Clouds: few clouds at 2000 feet AGL
Weather: no significant weather observed at this time

METAR text: ETNH 181445Z 31021G32KT 8000 -SHRA SCT020CB SCT035 04/02 Q1010 RERASN BLU+BLU TEMPO YLO
Conditions at: ETNH (HOHN (GER-AFB) , DE) observed 1445 UTC 18 March 2019
Temperature: 4.0°C (39°F)
Dewpoint: 2.0°C (36°F) [RH = 87%]
Pressure (altimeter): 29.82 inches Hg (1010.0 mb)
Winds: from the NW (310 degrees) at 24 MPH (21 knots; 10.8 m/s)
gusting to 37 MPH (32 knots; 16.5 m/s)
Visibility: 5 miles ( 8 km)
Ceiling: at least 12,000 feet AGL
Clouds: scattered clouds at 2000 feet AGL
scattered clouds at 3500 feet AGL
Weather: -SHRA  (light rain showers)

METAR text: ETNH 181441Z 31019G31KT 4500 SHRASN BKN020CB SCT035 04/02 Q1010 GRN BLU TEMPO YLO
Conditions at: ETNH (HOHN (GER-AFB) , DE) observed 1441 UTC 18 March 2019
Temperature: 4.0°C (39°F)
Dewpoint: 2.0°C (36°F) [RH = 87%]
Pressure (altimeter): 29.82 inches Hg (1010.0 mb)
Winds: from the NW (310 degrees) at 22 MPH (19 knots; 9.8 m/s)
gusting to 36 MPH (31 knots; 15.9 m/s)
Visibility: 2.80 miles (4.51 km)
Ceiling: 2000 feet AGL
Clouds: broken clouds at 2000 feet AGL
scattered clouds at 3500 feet AGL
Weather: SHRA SHSN  (rain showers, snow showers)

METAR text: ETNH 181434Z 30019KT 4500 SHRA BKN020CB SCT035 04/02 Q1010 GRN BLU TEMPO YLO
Conditions at: ETNH (HOHN (GER-AFB) , DE) observed 1434 UTC 18 March 2019
Temperature: 4.0°C (39°F)
Dewpoint: 2.0°C (36°F) [RH = 87%]
Pressure (altimeter): 29.82 inches Hg (1010.0 mb)
Winds: from the WNW (300 degrees) at 22 MPH (19 knots; 9.8 m/s)
Visibility: 2.80 miles (4.51 km)
Ceiling: 2000 feet AGL
Clouds: broken clouds at 2000 feet AGL
scattered clouds at 3500 feet AGL
Weather: SHRA  (rain showers)

METAR text: ETNH 181428Z 30023G39KT 8000 -SHRA BKN020CB SCT035 04/01 Q1010 WHT BLU TEMPO YLO
Conditions at: ETNH (HOHN (GER-AFB) , DE) observed 1428 UTC 18 March 2019
Temperature: 4.0°C (39°F)
Dewpoint: 1.0°C (34°F) [RH = 81%]
Pressure (altimeter): 29.82 inches Hg (1010.0 mb)
Winds: from the WNW (300 degrees) at 26 MPH (23 knots; 11.8 m/s)
gusting to 45 MPH (39 knots; 20.1 m/s)
Visibility: 5 miles ( 8 km)
Ceiling: 2000 feet AGL
Clouds: broken clouds at 2000 feet AGL
scattered clouds at 3500 feet AGL
Weather: -SHRA  (light rain showers)

METAR text: ETNH 181420Z 30020G39KT 8000 -SHRA SCT020CB SCT035 06/02 Q1010 RESHGS BLU+BLU TEMPO YLO
Conditions at: ETNH (HOHN (GER-AFB) , DE) observed 1420 UTC 18 March 2019
Temperature: 6.0°C (43°F)
Dewpoint: 2.0°C (36°F) [RH = 75%]
Pressure (altimeter): 29.82 inches Hg (1010.0 mb)
Winds: from the WNW (300 degrees) at 23 MPH (20 knots; 10.3 m/s)
gusting to 45 MPH (39 knots; 20.1 m/s)
Visibility: 5 miles ( 8 km)
Ceiling: at least 12,000 feet AGL
Clouds: scattered clouds at 2000 feet AGL
scattered clouds at 3500 feet AGL
Weather: -SHRA  (light rain showers)

METAR text: ETNH 181417Z 30019KT 2800 -SHRA HZ BKN020CB SCT035 07/03 Q1009 RESHGS YLO BLU TEMPO GRN
Conditions at: ETNH (HOHN (GER-AFB) , DE) observed 1417 UTC 18 March 2019
Temperature: 7.0°C (45°F)
Dewpoint: 3.0°C (37°F) [RH = 76%]
Pressure (altimeter): 29.79 inches Hg (1009.0 mb)
Winds: from the WNW (300 degrees) at 22 MPH (19 knots; 9.8 m/s)
Visibility: 1.74 miles (2.80 km)
Ceiling: 2000 feet AGL
Clouds: broken clouds at 2000 feet AGL
scattered clouds at 3500 feet AGL
Weather: -SHRA HZ  (light rain showers, haze)

METAR text: ETNH 181404Z 28027G38KT 8000 BKN020CB SCT035 06/02 Q1009 RESHGS WHT BLU TEMPO GRN
Conditions at: ETNH (HOHN (GER-AFB) , DE) observed 1404 UTC 18 March 2019
Temperature: 6.0°C (43°F)
Dewpoint: 2.0°C (36°F) [RH = 75%]
Pressure (altimeter): 29.79 inches Hg (1009.0 mb)
Winds: from the W (280 degrees) at 31 MPH (27 knots; 13.9 m/s)
gusting to 44 MPH (38 knots; 19.5 m/s)
Visibility: 5 miles ( 8 km)
Ceiling: 2000 feet AGL
Clouds: broken clouds at 2000 feet AGL
scattered clouds at 3500 feet AGL
Weather: no significant weather observed at this time

METAR text: ETNH 181401Z 28027G38KT 4500 SHGSRA BKN020CB SCT035 07/02 Q1009 GRN BLU TEMPO GRN
Conditions at: ETNH (HOHN (GER-AFB) , DE) observed 1401 UTC 18 March 2019
Temperature: 7.0°C (45°F)
Dewpoint: 2.0°C (36°F) [RH = 70%]
Pressure (altimeter): 29.79 inches Hg (1009.0 mb)
Winds: from the W (280 degrees) at 31 MPH (27 knots; 13.9 m/s)
gusting to 44 MPH (38 knots; 19.5 m/s)
Visibility: 2.80 miles (4.51 km)
Ceiling: 2000 feet AGL
Clouds: broken clouds at 2000 feet AGL
scattered clouds at 3500 feet AGL
Weather: SHGS SHRA  (small hail or graupel showers, rain showers)

METAR text: ETNH 181320Z 29023KT 9999 VCSH SCT020CB SCT035 06/01 Q1008 BLU+BLU TEMPO GRN
Conditions at: ETNH (HOHN (GER-AFB) , DE) observed 1320 UTC 18 March 2019
Temperature: 6.0°C (43°F)
Dewpoint: 1.0°C (34°F) [RH = 70%]
Pressure (altimeter): 29.76 inches Hg (1008.0 mb)
Winds: from the WNW (290 degrees) at 26 MPH (23 knots; 11.8 m/s)
Visibility: 6 or more miles (10+ km)
Ceiling: at least 12,000 feet AGL
Clouds: scattered clouds at 2000 feet AGL
scattered clouds at 3500 feet AGL
Weather: VCSH  (showers in vicinity)

METAR text: ETNH 181220Z 28025G35KT 9999 FEW019 SCT040 07/02 Q1007 BLU+BLU TEMPO GRN
Conditions at: ETNH (HOHN (GER-AFB) , DE) observed 1220 UTC 18 March 2019
Temperature: 7.0°C (45°F)
Dewpoint: 2.0°C (36°F) [RH = 70%]
Pressure (altimeter): 29.73 inches Hg (1007.0 mb)
Winds: from the W (280 degrees) at 29 MPH (25 knots; 12.9 m/s)
gusting to 40 MPH (35 knots; 18.0 m/s)
Visibility: 6 or more miles (10+ km)
Ceiling: at least 12,000 feet AGL
Clouds: few clouds at 1900 feet AGL
scattered clouds at 4000 feet AGL
Weather: no significant weather observed at this time

METAR text: ETNH 181200Z 28025G35KT 9999 FEW019 SCT040 07/02 Q1007 BLU+BLU TEMPO GRN
Conditions at: ETNH (HOHN (GER-AFB) , DE) observed 1200 UTC 18 March 2019
Temperature: 7.0°C (45°F)
Dewpoint: 2.0°C (36°F) [RH = 70%]
Pressure (altimeter): 29.73 inches Hg (1007.0 mb)
Winds: from the W (280 degrees) at 29 MPH (25 knots; 12.9 m/s)
gusting to 40 MPH (35 knots; 18.0 m/s)
Visibility: 6 or more miles (10+ km)
Ceiling: at least 12,000 feet AGL
Clouds: few clouds at 1900 feet AGL
scattered clouds at 4000 feet AGL
Weather: no significant weather observed at this time

METAR text: ETNH 181120Z 28026G38KT 9999 SCT022 SCT040 08/02 Q1006 BLU+BLU TEMPO GRN
Conditions at: ETNH (HOHN (GER-AFB) , DE) observed 1120 UTC 18 March 2019
Temperature: 8.0°C (46°F)
Dewpoint: 2.0°C (36°F) [RH = 66%]
Pressure (altimeter): 29.70 inches Hg (1006.0 mb)
Winds: from the W (280 degrees) at 30 MPH (26 knots; 13.4 m/s)
gusting to 44 MPH (38 knots; 19.5 m/s)
Visibility: 6 or more miles (10+ km)
Ceiling: at least 12,000 feet AGL
Clouds: scattered clouds at 2200 feet AGL
scattered clouds at 4000 feet AGL
Weather: no significant weather observed at this time

METAR text: ETNH 181020Z 28030G41KT 8000 VCSH SCT020CB BKN035 08/02 Q1005 BLU BLU TEMPO GRN
Conditions at: ETNH (HOHN (GER-AFB) , DE) observed 1020 UTC 18 March 2019
Temperature: 8.0°C (46°F)
Dewpoint: 2.0°C (36°F) [RH = 66%]
Pressure (altimeter): 29.68 inches Hg (1005.0 mb)
Winds: from the W (280 degrees) at 34 MPH (30 knots; 15.4 m/s)
gusting to 47 MPH (41 knots; 21.1 m/s)
Visibility: 5 miles ( 8 km)
Ceiling: 3500 feet AGL
Clouds: scattered clouds at 2000 feet AGL
broken clouds at 3500 feet AGL
Weather: VCSH  (showers in vicinity)

METAR text: ETNH 180920Z 28024G37KT 9999 FEW020CB BKN030 07/02 Q1004 BLU BLU TEMPO GRN
Conditions at: ETNH (HOHN (GER-AFB) , DE) observed 0920 UTC 18 March 2019
Temperature: 7.0°C (45°F)
Dewpoint: 2.0°C (36°F) [RH = 70%]
Pressure (altimeter): 29.65 inches Hg (1004.0 mb)
Winds: from the W (280 degrees) at 28 MPH (24 knots; 12.3 m/s)
gusting to 43 MPH (37 knots; 19.0 m/s)
Visibility: 6 or more miles (10+ km)
Ceiling: 3000 feet AGL
Clouds: few clouds at 2000 feet AGL
broken clouds at 3000 feet AGL
Weather: no significant weather observed at this time

METAR text: ETNH 180820Z 27024KT 9999 -SHRA SCT020CB BKN025 05/02 Q1003 BLU BLU TEMPO GRN
Conditions at: ETNH (HOHN (GER-AFB) , DE) observed 0820 UTC 18 March 2019
Temperature: 5.0°C (41°F)
Dewpoint: 2.0°C (36°F) [RH = 81%]
Pressure (altimeter): 29.62 inches Hg (1003.0 mb)
Winds: from the W (270 degrees) at 28 MPH (24 knots; 12.3 m/s)
Visibility: 6 or more miles (10+ km)
Ceiling: 2500 feet AGL
Clouds: scattered clouds at 2000 feet AGL
broken clouds at 2500 feet AGL
Weather: -SHRA  (light rain showers)

METAR text: ETNH 180720Z 27024G35KT 9999 FEW020TCU BKN050 05/03 Q1002 BLU BLU TEMPO GRN
Conditions at: ETNH (HOHN (GER-AFB) , DE) observed 0720 UTC 18 March 2019
Temperature: 5.0°C (41°F)
Dewpoint: 3.0°C (37°F) [RH = 87%]
Pressure (altimeter): 29.59 inches Hg (1002.0 mb)
Winds: from the W (270 degrees) at 28 MPH (24 knots; 12.3 m/s)
gusting to 40 MPH (35 knots; 18.0 m/s)
Visibility: 6 or more miles (10+ km)
Ceiling: 5000 feet AGL
Clouds: few clouds at 2000 feet AGL
broken clouds at 5000 feet AGL
Weather: no significant weather observed at this time

METAR text: ETNH 180620Z 27024KT 9999 -SHRA SCT020TCU BKN050 04/02 Q1002 BLU BLU TEMPO GRN
Conditions at: ETNH (HOHN (GER-AFB) , DE) observed 0620 UTC 18 March 2019
Temperature: 4.0°C (39°F)
Dewpoint: 2.0°C (36°F) [RH = 87%]
Pressure (altimeter): 29.59 inches Hg (1002.0 mb)
Winds: from the W (270 degrees) at 28 MPH (24 knots; 12.3 m/s)
Visibility: 6 or more miles (10+ km)
Ceiling: 5000 feet AGL
Clouds: scattered clouds at 2000 feet AGL
broken clouds at 5000 feet AGL
Weather: -SHRA  (light rain showers)

METAR text: ETNH 180520Z 26019KT 9999 FEW020TCU BKN050 05/02 Q1001 BLU BLU TEMPO GRN
Conditions at: ETNH (HOHN (GER-AFB) , DE) observed 0520 UTC 18 March 2019
Temperature: 5.0°C (41°F)
Dewpoint: 2.0°C (36°F) [RH = 81%]
Pressure (altimeter): 29.56 inches Hg (1001.0 mb)
Winds: from the W (260 degrees) at 22 MPH (19 knots; 9.8 m/s)
Visibility: 6 or more miles (10+ km)
Ceiling: 5000 feet AGL
Clouds: few clouds at 2000 feet AGL
broken clouds at 5000 feet AGL
Weather: no significant weather observed at this time

METAR text: ETNH 180420Z 27024G35KT 9999 -SHRA SCT020TCU BKN040 05/02 Q1000 BLU
Conditions at: ETNH (HOHN (GER-AFB) , DE) observed 0420 UTC 18 March 2019
Temperature: 5.0°C (41°F)
Dewpoint: 2.0°C (36°F) [RH = 81%]
Pressure (altimeter): 29.53 inches Hg (1000.0 mb)
Winds: from the W (270 degrees) at 28 MPH (24 knots; 12.3 m/s)
gusting to 40 MPH (35 knots; 18.0 m/s)
Visibility: 6 or more miles (10+ km)
Ceiling: 4000 feet AGL
Clouds: scattered clouds at 2000 feet AGL
broken clouds at 4000 feet AGL
Weather: -SHRA  (light rain showers)

METAR text: ETNH 180320Z AUTO 26015G28KT 6000 // ////// 05/02 Q1000 ///
Conditions at: ETNH (HOHN (GER-AFB) , DE) observed 0320 UTC 18 March 2019
Temperature: 5.0°C (41°F)
Dewpoint: 2.0°C (36°F) [RH = 81%]
Pressure (altimeter): 29.53 inches Hg (1000.0 mb)
Winds: from the W (260 degrees) at 17 MPH (15 knots; 7.7 m/s)
gusting to 32 MPH (28 knots; 14.4 m/s)
Visibility: 4 miles ( 6 km)
Ceiling: unknown
Clouds: missing
Weather: no significant weather observed at this time

METAR text: ETNH 180220Z AUTO 25015G26KT 9000 // ////// 05/02 Q0999 ///
Conditions at: ETNH (HOHN (GER-AFB) , DE) observed 0220 UTC 18 March 2019
Temperature: 5.0°C (41°F)
Dewpoint: 2.0°C (36°F) [RH = 81%]
Pressure (altimeter): 29.50 inches Hg (999.0 mb)
Winds: from the WSW (250 degrees) at 17 MPH (15 knots; 7.7 m/s)
gusting to 30 MPH (26 knots; 13.4 m/s)
Visibility: 6 miles ( 9 km)
Ceiling: unknown
Clouds: missing
Weather: no significant weather observed at this time

METAR text: ETNH 180120Z AUTO 24015KT 9999 // ////// 05/03 Q0999 ///
Conditions at: ETNH (HOHN (GER-AFB) , DE) observed 0120 UTC 18 March 2019
Temperature: 5.0°C (41°F)
Dewpoint: 3.0°C (37°F) [RH = 87%]
Pressure (altimeter): 29.50 inches Hg (999.0 mb)
Winds: from the WSW (240 degrees) at 17 MPH (15 knots; 7.7 m/s)
Visibility: 6 or more miles (10+ km)
Ceiling: unknown
Clouds: missing
Weather: no significant weather observed at this time

METAR text: ETNH 180020Z AUTO 24014G27KT 9000 // ////// 06/03 Q0999 ///
Conditions at: ETNH (HOHN (GER-AFB) , DE) observed 0020 UTC 18 March 2019
Temperature: 6.0°C (43°F)
Dewpoint: 3.0°C (37°F) [RH = 81%]
Pressure (altimeter): 29.50 inches Hg (999.0 mb)
Winds: from the WSW (240 degrees) at 16 MPH (14 knots; 7.2 m/s)
gusting to 31 MPH (27 knots; 13.9 m/s)
Visibility: 6 miles ( 9 km)
Ceiling: unknown
Clouds: missing
Weather: no significant weather observed at this time

METAR text: ETNH 172320Z AUTO 24015G26KT 3900 // ////// 05/03 Q0999 ///
Conditions at: ETNH (HOHN (GER-AFB) , DE) observed 2320 UTC 17 March 2019
Temperature: 5.0°C (41°F)
Dewpoint: 3.0°C (37°F) [RH = 87%]
Pressure (altimeter): 29.50 inches Hg (999.0 mb)
Winds: from the WSW (240 degrees) at 17 MPH (15 knots; 7.7 m/s)
gusting to 30 MPH (26 knots; 13.4 m/s)
Visibility: 2.42 miles (3.89 km)
Ceiling: unknown
Clouds: missing
Weather: no significant weather observed at this time

METAR text: ETNH 172220Z AUTO 24014KT 1400 // ////// 04/03 Q0998 ///
Conditions at: ETNH (HOHN (GER-AFB) , DE) observed 2220 UTC 17 March 2019
Temperature: 4.0°C (39°F)
Dewpoint: 3.0°C (37°F) [RH = 93%]
Pressure (altimeter): 29.47 inches Hg (998.0 mb)
Winds: from the WSW (240 degrees) at 16 MPH (14 knots; 7.2 m/s)
Visibility: 0.87 miles (1.40 km)
Ceiling: unknown
Clouds: missing
Weather: no significant weather observed at this time

METAR text: ETNH 172140Z 26024G42KT 6000 SHRA BKN012CB 04/02 Q0999 GRN
Conditions at: ETNH (HOHN (GER-AFB) , DE) observed 2140 UTC 17 March 2019
Temperature: 4.0°C (39°F)
Dewpoint: 2.0°C (36°F) [RH = 87%]
Pressure (altimeter): 29.50 inches Hg (999.0 mb)
Winds: from the W (260 degrees) at 28 MPH (24 knots; 12.3 m/s)
gusting to 48 MPH (42 knots; 21.6 m/s)
Visibility: 4 miles ( 6 km)
Ceiling: 1200 feet AGL
Clouds: broken clouds at 1200 feet AGL
Weather: SHRA  (rain showers)

METAR text: ETNH 172120Z 24020G35KT 8000 -SHRA BKN020 06/02 Q0998 WHT
Conditions at: ETNH (HOHN (GER-AFB) , DE) observed 2120 UTC 17 March 2019
Temperature: 6.0°C (43°F)
Dewpoint: 2.0°C (36°F) [RH = 75%]
Pressure (altimeter): 29.47 inches Hg (998.0 mb)
Winds: from the WSW (240 degrees) at 23 MPH (20 knots; 10.3 m/s)
gusting to 40 MPH (35 knots; 18.0 m/s)
Visibility: 5 miles ( 8 km)
Ceiling: 2000 feet AGL
Clouds: broken clouds at 2000 feet AGL
Weather: -SHRA  (light rain showers)

METAR text: ETNH 172020Z 24016G32KT 9999 FEW032 SCT140 05/01 Q0998 BLU+
Conditions at: ETNH (HOHN (GER-AFB) , DE) observed 2020 UTC 17 March 2019
Temperature: 5.0°C (41°F)
Dewpoint: 1.0°C (34°F) [RH = 75%]
Pressure (altimeter): 29.47 inches Hg (998.0 mb)
Winds: from the WSW (240 degrees) at 18 MPH (16 knots; 8.2 m/s)
gusting to 37 MPH (32 knots; 16.5 m/s)
Visibility: 6 or more miles (10+ km)
Ceiling: at least 12,000 feet AGL
Clouds: few clouds at 3200 feet AGL
scattered clouds at 14000 feet AGL
Weather: no significant weather observed at this time

METAR text: ETNH 171920Z 24015G27KT 9999 FEW033 SCT140 05/01 Q0998 BLU+
Conditions at: ETNH (HOHN (GER-AFB) , DE) observed 1920 UTC 17 March 2019
Temperature: 5.0°C (41°F)
Dewpoint: 1.0°C (34°F) [RH = 75%]
Pressure (altimeter): 29.47 inches Hg (998.0 mb)
Winds: from the WSW (240 degrees) at 17 MPH (15 knots; 7.7 m/s)
gusting to 31 MPH (27 knots; 13.9 m/s)
Visibility: 6 or more miles (10+ km)
Ceiling: at least 12,000 feet AGL
Clouds: few clouds at 3300 feet AGL
scattered clouds at 14000 feet AGL
Weather: no significant weather observed at this time

METAR text: ETNH 171820Z 24015G26KT 9999 FEW020 05/01 Q0998 BLU+
Conditions at: ETNH (HOHN (GER-AFB) , DE) observed 1820 UTC 17 March 2019
Temperature: 5.0°C (41°F)
Dewpoint: 1.0°C (34°F) [RH = 75%]
Pressure (altimeter): 29.47 inches Hg (998.0 mb)
Winds: from the WSW (240 degrees) at 17 MPH (15 knots; 7.7 m/s)
gusting to 30 MPH (26 knots; 13.4 m/s)
Visibility: 6 or more miles (10+ km)
Ceiling: at least 12,000 feet AGL
Clouds: few clouds at 2000 feet AGL
Weather: no significant weather observed at this time

Forecast for: ETNH (HOHN (GER-AFB) , DE)
Text: TAF ETNH 182310Z 1900/1912 28010G22KT 9999 NSW SCT030 BKN120 BY ETGL
Forecast period: 0000 to 1200 UTC 19 March 2019
Forecast type: FROM: standard forecast or significant change
Winds: from the W (280 degrees) at 12 MPH (10 knots; 5.1 m/s)
gusting to 25 MPH (22 knots; 11.3 m/s)
Visibility: 6 or more miles 10+ km)
Ceiling: 12000 feet AGL
Clouds: scattered clouds at 3000 feet AGL
broken clouds at 12000 feet AGL
Weather: NSW  (no significant weather)